Terminal Aerodrome Forecast
Issued by NWS

Home | Current Version | Previous Version | Text Only | Print | Product List | Glossary On
Versions: 1 2 3 4 5 6 7 8 9 10 11 12 13 14 15 16 17 18 19 20
000
FTUS44 KHGX 232344
TAFLBX
TAF
KLBX 232344Z 2400/2424 12004KT P6SM FEW030
     FM240600 00000KT P6SM MIFG SKC
      TEMPO 2408/2412 2SM BR BKN004
     FM241500 12007KT P6SM SCT025
     FM241800 12007KT P6SM VCSH SCT035
      AMD NOT SKED=

USA.gov is the U.S. government's official web portal to all federal, state and local government web resources and services.